Terminal Aerodrome Forecast
Issued by NWS

Home | Current Version | Previous Version | Text Only | Print | Product List | Glossary Off
Versions: 1 2 3 4 5 6 7 8 9 10 11 12 13 14 15 16 17 18 19

000
FTUS43 KABR 170356 AAB
TAFATY
TAF AMD
KATY 170356Z 1704/1724 36004KT 1SM BR BKN002
      TEMPO 1704/1708 1/4SM FZFG VV001
     FM170800 31004KT 6SM BR FEW120
     FM170900 31004KT 5SM BR FEW150
     FM171500 25005KT P6SM FEW100=

USA.gov is the U.S. government's official web portal to all federal, state and local government web resources and services.